This is the latest recevied weather packets stored in our database for station/object VU3KEB-1. If no packets are shown the sender has not sent any weather packets the latest 10 day(s).
| Time | Temp. | Humidity | Pressure | Rain* | Wind** | Luminosity | Snow |
|---|---|---|---|---|---|---|---|
| 1788159373 | 85° F | 50% | 775.1 mmHg | - | - | - | - |
| 1788158156 | 85° F | 50% | 775.4 mmHg | - | - | - | - |
| 1788156940 | 84° F | 50% | 775.4 mmHg | - | - | - | - |
| 1788155724 | 83° F | 53% | 776.1 mmHg | - | - | - | - |
| 1788154506 | 83° F | 53% | 776.1 mmHg | - | - | - | - |
| 1788153291 | 82° F | 57% | 776.3 mmHg | - | - | - | - |
| 1788152073 | 81° F | 57% | 776.3 mmHg | - | - | - | - |
| 1788150859 | 80° F | 57% | 776.3 mmHg | - | - | - | - |
| 1788149634 | 78° F | 67% | 776.4 mmHg | - | - | - | - |
| 1788010317 | 78° F | 63% | 774.7 mmHg | - | - | - | - |
| 1788009101 | 78° F | 69% | 773.9 mmHg | - | - | - | - |
| 1788007884 | 78° F | 69% | 773.9 mmHg | - | - | - | - |
| 1788006670 | 77° F | 69% | 773.9 mmHg | - | - | - | - |
| 1788005455 | 82° F | 58% | 773.5 mmHg | - | - | - | - |
| 1788004242 | 81° F | 58% | 773.5 mmHg | - | - | - | - |
| 1788003026 | 81° F | 58% | 773.5 mmHg | - | - | - | - |
| 1788001812 | 80° F | 68% | 773.4 mmHg | - | - | - | - |
| 1788000598 | 81° F | 68% | 773.4 mmHg | - | - | - | - |
| 1787999383 | 85° F | 68% | 773.4 mmHg | - | - | - | - |
| 1787998169 | 86° F | 50% | 773.3 mmHg | - | - | - | - |
| 1787996955 | 87° F | 50% | 773.3 mmHg | - | - | - | - |
| 1787995740 | 88° F | 50% | 773.3 mmHg | - | - | - | - |
| 1787994525 | 88° F | 49% | 774.1 mmHg | - | - | - | - |
| 1787993311 | 88° F | 49% | 774.1 mmHg | - | - | - | - |
| 1787992097 | 87° F | 49% | 774.1 mmHg | - | - | - | - |
* Rain since midnight (hover to see other rain measurements)
** Current wind speed in m/s (hover to see current wind gust speed)